createdAt,value
2023-04-02T00:12:15.794Z,93.81
2023-04-02T00:42:19.099Z,94.80
2023-04-02T01:12:35.524Z,97.05
2023-04-02T01:42:43.859Z,97.12
2023-04-02T02:12:47.149Z,98.70
2023-04-02T02:42:52.313Z,97.83
2023-04-02T03:13:01.541Z,99.35
2023-04-02T03:43:12.358Z,99.76
2023-04-02T04:13:18.205Z,98.21
2023-04-02T04:43:28.665Z,99.88
2023-04-02T05:13:34.788Z,99.69
2023-04-02T05:43:39.217Z,100.00
2023-04-02T06:13:42.162Z,100.00
2023-04-02T06:43:47.040Z,98.59
2023-04-02T07:13:50.559Z,96.05
2023-04-02T07:43:53.780Z,93.72
2023-04-02T08:13:56.706Z,93.84
2023-04-02T08:44:09.330Z,94.07
2023-04-02T09:14:16.041Z,90.28
2023-04-02T09:44:23.888Z,90.77
2023-04-02T10:14:29.556Z,91.21
2023-04-02T10:44:46.958Z,87.84
2023-04-02T11:14:50.682Z,85.50
2023-04-02T11:44:54.002Z,84.57
2023-04-02T12:14:57.663Z,83.28
2023-04-02T12:45:01.206Z,82.43
2023-04-02T13:15:06.125Z,80.00
2023-04-02T13:45:19.102Z,81.87
2023-04-02T14:15:31.715Z,79.29
2023-04-02T14:45:44.736Z,80.21
2023-04-02T15:15:52.375Z,79.08
2023-04-02T15:46:07.942Z,75.74
2023-04-02T16:16:13.002Z,74.79
2023-04-02T16:46:31.837Z,72.66
2023-04-02T17:16:42.847Z,71.22
2023-04-02T17:46:50.462Z,70.85
2023-04-02T18:16:58.082Z,70.45
2023-04-02T18:47:06.523Z,69.91
2023-04-02T19:17:14.610Z,70.04
2023-04-02T19:47:18.616Z,67.30
2023-04-02T20:17:21.744Z,68.77
2023-04-02T20:47:24.873Z,67.80
2023-04-02T21:17:27.902Z,65.94
2023-04-02T21:47:30.890Z,68.43
2023-04-02T22:17:34.040Z,67.74
2023-04-02T22:47:37.064Z,68.42
2023-04-02T23:17:40.098Z,69.29
2023-04-02T23:47:43.201Z,69.00
